createdAt,value
2018-09-23T06:10:30.642Z,6.60
2018-09-23T06:19:24.233Z,18.30
2018-09-23T08:22:51.785Z,17.80
2018-09-23T08:23:51.261Z,12.50
2018-09-23T08:24:51.508Z,11.10
2018-09-23T08:25:51.387Z,12.00
2018-09-23T08:26:51.141Z,11.80
2018-09-23T08:29:43.599Z,9.90
2018-09-23T08:30:43.674Z,11.20
2018-09-23T08:59:02.879Z,10.20
2018-09-23T09:00:02.814Z,8.80
2018-09-23T09:01:02.685Z,8.20
2018-09-23T09:02:02.625Z,8.60
2018-09-23T09:03:02.532Z,8.20
2018-09-23T09:04:02.504Z,7.70
2018-09-23T09:05:02.566Z,7.70
2018-09-23T09:06:02.509Z,7.70
2018-09-23T09:07:02.561Z,7.80
2018-09-23T09:08:02.463Z,7.10
2018-09-23T09:09:02.508Z,6.80
2018-09-23T09:10:02.429Z,7.60
2018-09-23T09:11:02.415Z,6.70
2018-09-23T09:12:02.420Z,7.30
2018-09-23T09:13:02.485Z,7.10
2018-09-23T09:14:02.372Z,7.30
2018-09-23T09:15:02.377Z,7.40
2018-09-23T09:16:02.351Z,7.50
2018-09-23T09:17:02.341Z,7.30
2018-09-23T09:18:02.426Z,7.20
2018-09-23T09:19:02.383Z,7.70
2018-09-23T09:20:02.330Z,7.70
2018-09-23T09:21:02.345Z,7.00
2018-09-23T09:22:02.328Z,7.60
2018-09-23T09:32:51.228Z,6.40
2018-09-23T09:33:50.943Z,7.50
2018-09-23T09:34:50.964Z,7.90
2018-09-23T09:35:50.810Z,7.50
2018-09-23T09:36:50.800Z,7.40
2018-09-23T09:54:13.576Z,15.80
2018-09-23T11:07:25.605Z,5.80
2018-09-23T12:09:42.793Z,13.50
2018-09-23T12:10:42.401Z,18.80
2018-09-23T12:11:42.454Z,17.60
2018-09-23T12:12:42.435Z,18.10
2018-09-23T12:14:59.367Z,15.70
2018-09-23T12:15:59.662Z,16.50
2018-09-23T12:16:59.232Z,17.00
2018-09-23T12:18:00.403Z,15.90
2018-09-23T12:18:59.316Z,16.50
2018-09-23T12:48:56.180Z,15.40
2018-09-23T13:18:04.464Z,9.90
2018-09-23T13:26:11.540Z,10.50
2018-09-23T13:38:39.603Z,9.20
2018-09-23T14:17:33.756Z,10.80
2018-09-23T14:18:33.127Z,15.00
2018-09-23T14:19:42.848Z,14.20
2018-09-23T14:20:33.383Z,13.70
2018-09-23T14:21:33.140Z,14.60
2018-09-23T14:22:33.133Z,13.70
2018-09-23T14:23:33.015Z,14.30
2018-09-23T14:24:32.999Z,13.80
2018-09-23T14:25:33.020Z,14.20
2018-09-23T14:26:32.979Z,12.80
2018-09-23T14:27:32.963Z,10.90
2018-09-23T14:28:32.970Z,11.40
2018-09-23T14:29:32.940Z,11.30
2018-09-23T14:30:32.936Z,8.80
2018-09-23T14:31:36.345Z,9.30
2018-09-23T14:32:32.920Z,9.20
2018-09-23T14:33:33.695Z,9.70
2018-09-23T14:34:32.938Z,9.50
2018-09-23T14:39:03.805Z,10.00
2018-09-23T14:44:10.618Z,10.10
2018-09-23T14:45:10.125Z,10.90
2018-09-23T14:46:10.260Z,11.90
2018-09-23T14:47:10.290Z,11.80
2018-09-23T14:48:10.013Z,9.70
2018-09-23T14:49:10.118Z,9.40
2018-09-23T14:50:10.019Z,9.40
2018-09-23T14:51:10.012Z,9.80
2018-09-23T14:52:10.021Z,9.70
2018-09-23T14:53:10.099Z,10.90
2018-09-23T14:54:09.995Z,10.70
2018-09-23T14:55:10.006Z,10.70
2018-09-23T14:56:10.480Z,10.80
2018-09-23T14:57:09.932Z,11.30
2018-09-23T14:58:09.982Z,12.50
2018-09-23T14:59:09.907Z,11.20
2018-09-23T15:00:10.004Z,9.90
2018-09-23T15:01:09.883Z,9.40
2018-09-23T15:03:59.314Z,9.40
2018-09-23T15:04:59.020Z,10.60
2018-09-23T15:05:58.852Z,10.60
2018-09-23T15:06:59.045Z,9.40
2018-09-23T15:07:58.966Z,10.10
2018-09-23T15:08:59.516Z,9.70
2018-09-23T15:09:59.491Z,10.00
2018-09-23T15:10:58.878Z,10.80
2018-09-23T15:12:01.565Z,9.90
2018-09-23T15:12:59.361Z,10.10
2018-09-23T15:13:58.776Z,10.70
2018-09-23T15:14:58.902Z,10.80
2018-09-23T15:15:58.813Z,10.20
2018-09-23T15:16:58.742Z,10.20
2018-09-23T15:18:05.458Z,10.40
2018-09-23T15:18:58.706Z,9.50
2018-09-23T15:19:59.392Z,9.90
2018-09-23T15:27:34.798Z,10.00
2018-09-23T15:28:34.976Z,9.80
2018-09-23T15:29:34.570Z,10.70
2018-09-23T15:30:34.472Z,10.10
2018-09-23T15:31:34.479Z,10.60
2018-09-23T15:32:34.620Z,10.50
2018-09-23T15:33:35.091Z,11.20
2018-09-23T15:34:34.472Z,11.40
2018-09-23T15:35:34.478Z,10.90
2018-09-23T15:45:13.195Z,10.20
2018-09-23T15:46:13.992Z,10.60
2018-09-23T15:51:27.875Z,7.70
2018-09-23T15:52:26.993Z,10.10
2018-09-23T15:53:26.964Z,10.30
2018-09-23T15:54:28.533Z,10.10
2018-09-23T15:55:26.911Z,10.70
2018-09-23T15:56:28.029Z,11.30
2018-09-23T15:57:33.921Z,11.10
2018-09-23T15:58:26.874Z,17.30
2018-09-23T16:01:28.473Z,21.40
2018-09-23T16:03:50.204Z,10.70
2018-09-23T16:04:50.488Z,10.90
2018-09-23T16:05:49.931Z,18.90
2018-09-23T16:06:49.793Z,15.50
2018-09-23T16:07:50.919Z,12.80
2018-09-23T16:08:49.869Z,14.90
2018-09-23T16:09:49.757Z,14.30
2018-09-23T16:10:49.811Z,12.20
2018-09-23T16:11:49.729Z,11.40
2018-09-23T16:12:49.826Z,11.70
2018-09-23T16:13:49.774Z,12.30
2018-09-23T16:14:49.739Z,11.10
2018-09-23T16:15:49.982Z,12.00
2018-09-23T16:16:49.689Z,11.10
2018-09-23T16:17:53.252Z,9.10
2018-09-23T16:18:50.282Z,10.40
2018-09-23T16:19:50.354Z,9.10
2018-09-23T16:20:49.616Z,9.00
2018-09-23T16:21:49.905Z,8.70
2018-09-23T16:27:12.024Z,8.00
2018-09-23T16:28:12.207Z,8.40
2018-09-23T16:29:11.692Z,10.00
2018-09-23T16:30:11.593Z,8.20
2018-09-23T16:31:11.590Z,7.20
2018-09-23T16:38:21.538Z,5.90
2018-09-23T16:39:21.903Z,6.70
2018-09-23T16:40:21.036Z,8.20
2018-09-23T16:41:21.630Z,6.40
2018-09-23T16:42:21.062Z,5.90
2018-09-23T16:43:20.882Z,5.50
2018-09-23T16:44:20.937Z,5.90
2018-09-23T16:45:20.857Z,5.70
2018-09-23T16:46:20.862Z,6.20
2018-09-23T16:47:20.935Z,5.60
2018-09-23T16:48:20.853Z,6.00
2018-09-23T16:49:20.889Z,5.80
2018-09-23T17:48:53.945Z,6.40
2018-09-23T17:49:53.647Z,8.30
2018-09-23T19:38:44.652Z,9.30
2018-09-23T19:39:44.239Z,7.00
2018-09-23T19:40:44.481Z,6.80
2018-09-23T19:41:44.260Z,7.60
2018-09-23T19:42:45.818Z,9.70
2018-09-23T19:43:44.174Z,8.30
2018-09-23T19:44:44.093Z,9.00
2018-09-23T19:45:44.153Z,7.90
2018-09-23T19:46:44.144Z,7.20
2018-09-23T19:47:44.128Z,7.80
2018-09-23T19:48:44.169Z,7.00
2018-09-23T19:49:44.170Z,7.30
2018-09-23T19:50:44.102Z,7.20
2018-09-23T19:51:44.044Z,7.60
2018-09-23T19:52:43.999Z,7.00
2018-09-23T19:53:44.030Z,7.30
2018-09-23T19:54:44.136Z,6.90
2018-09-23T19:55:43.975Z,7.30
2018-09-23T19:56:44.004Z,7.80
2018-09-23T19:57:43.981Z,7.50
2018-09-23T19:58:43.993Z,8.30
2018-09-23T19:59:44.045Z,8.60
2018-09-23T20:00:44.027Z,7.50
2018-09-23T20:01:43.930Z,7.60
2018-09-23T20:02:43.895Z,8.20
2018-09-23T20:03:43.933Z,7.70
2018-09-23T20:04:43.865Z,7.20
2018-09-23T20:05:43.891Z,8.10
2018-09-23T20:06:43.909Z,7.50
2018-09-23T20:07:43.833Z,7.70
